Data for 03/04/2005

Time Sea-Level Adjusted Pressure Absolute Pressure Temperature Relative Humidity Dew Point   
(mb) (inHg) (mb) (inHg) (C) (F) (%) (C) (F)
00:05 1017 30.03 847 25.01 2.2 36 49 -7.3 18.9
00:10 1017 30.03 847 25.01 2 35.7 49 -7.5 18.5
00:15 1017 30.03 847 25.01 2.4 36.4 48 -7.6 18.3
00:20 1017 30.03 847 25.01 2.3 36.2 49 -7.2 19
00:25 1017 30.03 847 25.01 1.7 35 51 -7.4 18.8
00:30 1018 30.06 847 25.01 1.6 34.8 51 -7.5 18.5
00:35 1018 30.06 847 25.01 1.6 34.8 51 -7.4 18.6
00:40 1018 30.06 847 25.01 1.4 34.5 53 -7.2 19
00:45 1018 30.06 847 25.01 1.1 34 54 -7.3 18.9
00:50 1018 30.06 847 25.01 0.8 33.4 55 -7.2 19.1
00:55 1018 30.06 847 25.01 0.9 33.5 55 -7.1 19.2
01:00 1018 30.06 847 25.01 0.8 33.5 55 -7.2 19.1
01:05 1018 30.06 847 25.01 0.7 33.2 56 -7.1 19.3
01:10 1018 30.06 847 25.01 0.5 33 57 -7.1 19.3
01:15 1018 30.06 847 25.01 0.4 32.7 58 -7 19.3
01:20 1018 30.06 847 25.01 0.3 32.5 57 -7.4 18.8
01:25 1018 30.06 847 25.01 0.5 32.8 57 -7.1 19.2
01:30 1018 30.06 847 25.01 0.2 32.3 58 -7.1 19.3
01:35 1018 30.06 847 25.01 0.2 32.3 58 -7.2 19.1
01:40 1018 30.06 847 25.01 0.2 32.4 57 -7.3 18.8
01:45 1018 30.06 847 25.01 0.7 33.3 55 -7.3 18.9
01:50 1018 30.06 847 25.01 0.9 33.7 55 -7.1 19.3
01:55 1018 30.06 847 25.01 0.8 33.4 55 -7.2 19.1
02:00 1018 30.06 847 25.01 0.4 32.7 57 -7.1 19.2
02:05 1018 30.06 847 25.01 0.3 32.5 57 -7.2 19.1
02:10 1018 30.06 847 25.01 0.3 32.5 57 -7.3 18.8
02:15 1018 30.06 847 25.01 0.3 32.5 57 -7.2 19.1
02:20 1018 30.06 847 25.01 0.6 33.2 56 -7.2 19.1
02:25 1018 30.06 847 25.01 0.6 33.1 57 -7 19.3
02:30 1018 30.06 847 25.01 0.7 33.2 56 -7.2 19.1
02:35 1018 30.06 847 25.01 0.8 33.4 56 -7 19.3
02:40 1018 30.06 847 25.01 0.6 33 58 -6.8 19.8
02:45 1018 30.06 847 25.01 0.2 32.3 59 -7 19.4
02:50 1018 30.06 847 25.01 0.2 32.4 59 -7 19.5
02:55 1018 30.06 847 25.01 0 32.1 60 -6.8 19.8
03:00 1018 30.06 847 25.01 -0.3 31.5 62 -6.7 19.9
03:05 1018 30.06 847 25.01 -0.4 31.3 62 -6.9 19.6
03:10 1018 30.06 847 25.01 -0.4 31.2 62 -6.9 19.5
03:15 1018 30.06 847 25.01 -0.5 31.2 61 -7 19.4
03:20 1018 30.06 847 25.01 -0.3 31.4 60 -7.1 19.2
03:25 1018 30.06 847 25.01 -0.2 31.6 60 -7.1 19.2
03:30 1018 30.06 847 25.01 -0.1 31.8 59 -7.1 19.2
03:35 1018 30.06 847 25.01 -0.3 31.4 61 -6.8 19.7
03:40 1018 30.06 847 25.01 -0.8 30.6 63 -6.9 19.5
03:45 1018 30.06 847 25.01 -0.8 30.5 62 -7.1 19.2
03:50 1018 30.06 847 25.01 -0.9 30.4 63 -7 19.4
03:55 1018 30.06 847 25.01 -1.2 29.8 64 -7.2 19
04:00 1018 30.06 847 25.01 -1 30.2 62 -7.5 18.5
04:05 1018 30.06 847 25.01 -0.7 30.7 61 -7.3 18.9
04:10 1018 30.06 847 25.01 -0.9 30.3 63 -7.1 19.2
04:15 1018 30.06 847 25.01 -1.4 29.4 64 -7.3 18.8
04:20 1018 30.06 847 25.01 -1.1 30 61 -7.6 18.3
04:25 1018 30.06 847 25.01 -0.2 31.6 58 -7.5 18.5
04:30 1018 30.06 847 25.01 -0 31.9 58 -7.4 18.8
04:35 1018 30.06 847 25.01 -0.1 31.8 59 -7.2 19.1
04:40 1018 30.06 847 25.01 -0.2 31.6 59 -7.3 18.9
04:45 1018 30.06 847 25.01 -0.3 31.4 59 -7.3 18.8
04:50 1018 30.06 847 25.01 -0.2 31.7 58 -7.5 18.4
04:55 1018 30.06 847 25.01 -0.1 31.8 59 -7.3 18.9
05:00 1018 30.06 848 25.04 -0.5 31.1 60 -7.3 18.9
05:05 1018 30.06 848 25.04 -0.9 30.4 62 -7.3 18.9
05:10 1018 30.06 848 25.04 -1.1 30.1 62 -7.4 18.7
05:15 1018 30.06 848 25.04 -1.2 29.8 64 -7.2 19
05:20 1018 30.06 848 25.04 -1.3 29.6 64 -7.2 19
05:25 1018 30.06 848 25.04 -1.5 29.4 65 -7.2 19
05:30 1019 30.09 848 25.04 -1.9 28.7 67 -7.3 18.9
05:35 1019 30.09 848 25.04 -1.8 28.8 66 -7.4 18.7
05:40 1019 30.09 848 25.04 -1.1 30 62 -7.5 18.4
05:45 1019 30.09 848 25.04 -1 30.1 62 -7.3 18.8
05:50 1019 30.09 848 25.04 -1.6 29.1 65 -7.4 18.8
05:55 1019 30.09 848 25.04 -1.4 29.4 64 -7.4 18.7
06:00 1019 30.09 848 25.04 -1.2 29.8 63 -7.4 18.6
06:05 1019 30.09 848 25.04 -1 30.2 62 -7.4 18.6
06:10 1019 30.09 848 25.04 -1.1 30 63 -7.4 18.7
06:15 1019 30.09 848 25.04 -1.2 29.8 63 -7.5 18.6
06:20 1019 30.09 848 25.04 -1.2 29.8 63 -7.4 18.7
06:25 1019 30.09 848 25.04 -1.6 29.1 66 -7.2 19.1
06:30 1019 30.09 848 25.04 -2.1 28.3 67 -7.4 18.7
06:35 1019 30.09 848 25.04 -2.1 28.3 67 -7.4 18.6
06:40 1019 30.09 848 25.04 -1.9 28.5 66 -7.4 18.6
06:45 1019 30.09 848 25.04 -1.8 28.8 65 -7.4 18.6
06:50 1019 30.09 848 25.04 -1.7 28.9 64 -7.6 18.4
06:55 1019 30.09 848 25.04 -1.6 29.2 64 -7.5 18.6
07:00 1019 30.09 849 25.07 -1.6 29.2 63 -7.6 18.2
07:05 1019 30.09 849 25.07 -1.5 29.4 63 -7.6 18.3
07:10 1019 30.09 849 25.07 -1.5 29.3 63 -7.6 18.3
07:15 1019 30.09 849 25.07 -1.3 29.6 62 -7.6 18.3
07:20 1019 30.09 849 25.07 -1.2 29.9 62 -7.6 18.3
07:25 1020 30.12 849 25.07 -1.2 29.9 62 -7.6 18.4
07:30 1020 30.12 849 25.07 -1.1 30.1 61 -7.6 18.3
07:35 1020 30.12 849 25.07 -0.9 30.4 60 -7.7 18.2
07:40 1020 30.12 849 25.07 -0.7 30.8 59 -7.7 18.1
07:45 1020 30.12 849 25.07 -0.5 31 59 -7.6 18.4
07:50 1020 30.12 849 25.07 -0.5 31.1 59 -7.6 18.3
07:55 1020 30.12 849 25.07 -0.4 31.3 58 -7.6 18.3
08:00 1020 30.12 849 25.07 -0.2 31.6 57 -7.7 18.1
08:05 1020 30.12 849 25.07 0.1 32.2 56 -7.6 18.4
08:10 1020 30.12 849 25.07 0.4 32.7 56 -7.4 18.6
08:15 1020 30.12 849 25.07 0.5 32.9 56 -7.3 18.8
08:20 1020 30.12 849 25.07 0.8 33.4 56 -7.1 19.2
08:25 1020 30.12 849 25.07 1.2 34.1 54 -7.2 19.1
08:30 1020 30.12 849 25.07 1.5 34.7 52 -7.2 19
08:35 1020 30.12 849 25.07 1.5 34.8 52 -7.2 19
08:40 1020 30.12 849 25.07 2 35.6 51 -7.2 19
08:45 1020 30.12 849 25.07 2.6 36.7 49 -7.1 19.3
08:50 1020 30.12 850 25.1 3.2 37.7 48 -6.7 20
08:55 1020 30.12 850 25.1 3 37.5 47 -7.1 19.2
09:00 1020 30.12 850 25.1 3.6 38.6 45 -7.2 19.1
09:05 1020 30.12 850 25.1 4.1 39.3 44 -7 19.3
09:10 1020 30.12 850 25.1 4.2 39.5 45 -6.8 19.8
09:15 1020 30.12 850 25.1 4.4 39.9 44 -6.8 19.7
09:20 1020 30.12 850 25.1 4.7 40.5 43 -6.9 19.7
09:25 1020 30.12 850 25.1 4.7 40.4 43 -6.8 19.8
09:30 1020 30.12 850 25.1 4.8 40.6 42 -7.1 19.2
09:35 1020 30.12 850 25.1 5.2 41.4 41 -7 19.4
09:40 1020 30.12 850 25.1 5.1 41.2 42 -6.7 20
09:45 1020 30.12 850 25.1 4.6 40.3 44 -6.7 19.9
09:50 1020 30.12 850 25.1 4.6 40.3 42 -7.2 19.1
09:55 1020 30.12 850 25.1 5.6 42.1 39 -7.2 19
10:00 1020 30.12 850 25.1 6 42.7 38 -7.3 18.8
10:05 1021 30.15 850 25.1 5.8 42.5 38 -7.4 18.7
10:10 1021 30.15 850 25.1 6.6 43.8 35 -7.7 18.1
10:15 1021 30.15 850 25.1 6.9 44.5 35 -7.3 18.8
10:20 1021 30.15 850 25.1 7.3 45.2 35 -7.2 19.1
10:25 1021 30.15 850 25.1 7.1 44.9 36 -7 19.4
10:30 1021 30.15 850 25.1 7.1 44.7 35 -7.3 18.9
10:35 1021 30.15 850 25.1 7.2 45 35 -7.2 19.1
10:40 1021 30.15 850 25.1 7.7 45.9 35 -6.8 19.8
10:45 1021 30.15 850 25.1 7.8 46.1 35 -6.8 19.8
10:50 1021 30.15 850 25.1 8 46.5 34 -6.7 19.9
10:55 1021 30.15 850 25.1 8.2 46.7 34 -6.7 19.9
11:00 1021 30.15 850 25.1 8.3 47 34 -6.5 20.3
11:05 1021 30.15 850 25.1 8.3 46.9 34 -6.6 20.2
11:10 1021 30.15 850 25.1 8.5 47.4 34 -6.5 20.3
11:15 1020 30.12 850 25.1 8.7 47.6 33 -6.5 20.2
11:20 1020 30.12 850 25.1 8.9 48 33 -6.3 20.6
11:25 1020 30.12 850 25.1 8.9 47.9 33 -6.6 20.1
11:30 1020 30.12 850 25.1 9.2 48.5 32 -6.6 20.1
11:35 1020 30.12 850 25.1 9.6 49.2 32 -6.2 20.9
11:40 1020 30.12 850 25.1 9.8 49.6 32 -6 21.2
11:45 1020 30.12 850 25.1 9.7 49.5 32 -6 21.1
11:50 1020 30.12 850 25.1 9.8 49.6 32 -6.1 21
11:55 1020 30.12 850 25.1 10 50 32 -6 21.1
12:00 1020 30.12 850 25.1 10 50.1 32 -5.8 21.5
12:05 1020 30.12 850 25.1 10.2 50.4 32 -5.7 21.8
12:10 1020 30.12 850 25.1 10 49.9 32 -6 21.2
12:15 1020 30.12 850 25.1 9.8 49.7 33 -5.6 21.8
12:20 1020 30.12 849 25.07 10.2 50.4 33 -5.3 22.5
12:25 1020 30.12 849 25.07 9 48.2 34 -6 21.3
12:30 1020 30.12 849 25.07 9.5 49.1 33 -6.1 20.9
12:35 1020 30.12 849 25.07 9.1 48.3 35 -5.4 22.2
12:40 1020 30.12 849 25.07 8.8 47.8 34 -6.1 21.1
12:45 1020 30.12 849 25.07 9.5 49 32 -6.4 20.5
12:50 1020 30.12 849 25.07 9.2 48.6 36 -4.9 23.3
12:55 1020 30.12 849 25.07 9.1 48.4 34 -6 21.2
13:00 1020 30.12 849 25.07 9.3 48.8 33 -6.2 20.8
13:05 1020 30.12 849 25.07 9.5 49 33 -5.8 21.5
13:10 1020 30.12 849 25.07 9.3 48.8 33 -6.2 20.8
13:15 1020 30.12 849 25.07 9.9 49.8 31 -6.3 20.6
13:20 1020 30.12 849 25.07 10.8 51.5 28 -6.9 19.5
13:25 1020 30.12 849 25.07 11.7 53.1 26 -7 19.3
13:30 1020 30.12 849 25.07 11.4 52.4 28 -6.5 20.3
13:35 1020 30.12 849 25.07 11.5 52.8 28 -6.4 20.5
13:40 1020 30.12 849 25.07 10.8 51.5 31 -5.7 21.7
13:45 1020 30.12 849 25.07 11.3 52.3 26 -7.3 18.9
13:50 1020 30.12 849 25.07 11.8 53.3 26 -7 19.4
13:55 1020 30.12 849 25.07 11.8 53.2 27 -6.6 20.2
14:00 1020 30.12 849 25.07 10.8 51.4 28 -6.9 19.5
14:05 1020 30.12 849 25.07 11.7 53 26 -7.2 19.1
14:10 1020 30.12 849 25.07 12.4 54.3 25 -7.2 19
14:15 1020 30.12 849 25.07 12.4 54.3 25 -6.8 19.7
14:20 1020 30.12 849 25.07 12.2 54 26 -6.9 19.5
14:25 1020 30.12 849 25.07 12.6 54.6 25 -7 19.3
14:30 1020 30.12 849 25.07 12.7 54.8 24 -7.4 18.7
14:35 1020 30.12 849 25.07 12.7 54.8 24 -7.2 19
14:40 1020 30.12 849 25.07 12.7 54.8 25 -7 19.3
14:45 1020 30.12 849 25.07 12.4 54.2 25 -6.9 19.6
14:50 1020 30.12 849 25.07 12.3 54.2 25 -7.2 19
14:55 1020 30.12 849 25.07 12.4 54.3 25 -7.2 19
15:00 1020 30.12 849 25.07 12.4 54.3 25 -6.9 19.6
15:05 1020 30.12 849 25.07 12.4 54.3 25 -7 19.4
15:10 1020 30.12 849 25.07 11.7 53.1 25 -7.5 18.4
15:15 1020 30.12 849 25.07 12.8 55 24 -7.4 18.6
15:20 1020 30.12 849 25.07 13 55.3 24 -7.2 19.1
15:25 1020 30.12 849 25.07 12.8 55.1 23 -7.7 18.2
15:30 1020 30.12 849 25.07 12.8 55 25 -7 19.5
15:35 1019 30.09 849 25.07 11.5 52.7 26 -7.5 18.5
15:40 1019 30.09 849 25.07 12.3 54.1 24 -7.8 18
15:45 1019 30.09 849 25.07 12.8 55 23 -7.9 17.7
15:50 1019 30.09 849 25.07 12.5 54.4 24 -7.6 18.4
15:55 1019 30.09 849 25.07 12.5 54.4 25 -6.8 19.7
16:00 1019 30.09 849 25.07 12.4 54.2 24 -7.6 18.3
16:05 1019 30.09 849 25.07 12.7 54.8 24 -7.6 18.4
16:10 1019 30.09 849 25.07 13.1 55.5 23 -7.3 18.8
16:15 1019 30.09 849 25.07 13 55.4 23 -7.4 18.7
16:20 1019 30.09 849 25.07 12.5 54.4 24 -7.5 18.6
16:25 1019 30.09 849 25.07 12.6 54.6 24 -7.7 18.2
16:30 1019 30.09 849 25.07 12.5 54.4 25 -7.3 18.9
16:35 1019 30.09 849 25.07 12.3 54.1 24 -7.5 18.5
16:40 1019 30.09 849 25.07 12.4 54.3 24 -7.4 18.7
16:45 1019 30.09 849 25.07 11.7 53.1 26 -7 19.3
16:50 1019 30.09 849 25.07 11.9 53.4 25 -7.5 18.4
16:55 1019 30.09 849 25.07 12.2 53.9 25 -7.1 19.3
17:00 1019 30.09 849 25.07 12.1 53.7 25 -7.3 18.9
17:05 1019 30.09 849 25.07 12.1 53.9 25 -7.4 18.6
17:10 1019 30.09 849 25.07 12.4 54.3 24 -7.5 18.4
17:15 1019 30.09 849 25.07 12.6 54.6 24 -7.6 18.3
17:20 1019 30.09 849 25.07 12.4 54.2 24 -7.7 18.2
17:25 1019 30.09 849 25.07 12.1 53.8 24 -7.8 18
17:30 1019 30.09 849 25.07 11.8 53.3 25 -7.7 18.2
17:35 1019 30.09 849 25.07 11.6 52.9 24 -8.2 17.2
17:40 1019 30.09 849 25.07 11.4 52.5 25 -7.8 18
17:45 1019 30.09 849 25.07 11.3 52.3 26 -7.3 18.8
17:50 1020 30.12 849 25.07 11.2 52.2 26 -7.3 18.8
17:55 1020 30.12 849 25.07 11 51.7 27 -7.4 18.8
18:00 1020 30.12 849 25.07 10.7 51.2 28 -7.1 19.1
18:05 1020 30.12 849 25.07 10.3 50.6 29 -7 19.5
18:10 1020 30.12 849 25.07 9.9 49.9 28 -7.6 18.4
18:15 1020 30.12 849 25.07 9.4 49 29 -7.6 18.3
18:20 1020 30.12 849 25.07 9.1 48.4 30 -7.6 18.3
18:25 1020 30.12 849 25.07 8.4 47.1 35 -6.3 20.7
18:30 1020 30.12 849 25.07 7.2 45 38 -6 21.2
18:35 1020 30.12 849 25.07 6.7 44.1 41 -5.6 21.8
18:40 1020 30.12 849 25.07 6.3 43.3 42 -5.8 21.6
18:45 1020 30.12 849 25.07 5.9 42.6 42 -6 21.3
18:50 1020 30.12 849 25.07 5.6 42.1 43 -6 21.2
18:55 1020 30.12 849 25.07 5.4 41.8 43 -6.2 20.9
19:00 1020 30.12 849 25.07 5.3 41.5 44 -6.1 21.1
19:05 1020 30.12 849 25.07 4.9 40.7 45 -6.1 21
19:10 1020 30.12 849 25.07 4.5 40.1 46 -6.2 20.8
19:15 1020 30.12 849 25.07 4.4 39.9 46 -6.3 20.6
19:20 1020 30.12 849 25.07 4.6 40.3 45 -6.3 20.7
19:25 1020 30.12 849 25.07 4.4 40 46 -6.2 20.8
19:30 1020 30.12 849 25.07 4 39.2 47 -6.4 20.5
19:35 1020 30.12 849 25.07 3.9 38.9 47 -6.6 20.2
19:40 1020 30.12 849 25.07 3.6 38.5 48 -6.4 20.5
19:45 1020 30.12 849 25.07 3.5 38.3 47 -6.6 20
19:50 1020 30.12 849 25.07 3.5 38.4 46 -6.9 19.6
19:55 1020 30.12 849 25.07 3.7 38.6 46 -7 19.4
20:00 1020 30.12 849 25.07 3.8 38.9 45 -7.1 19.3
20:05 1020 30.12 849 25.07 3.7 38.7 45 -7 19.3
20:10 1020 30.12 849 25.07 3.7 38.6 45 -7.2 19.1
20:15 1020 30.12 849 25.07 3.6 38.5 46 -7.1 19.3
20:20 1020 30.12 849 25.07 3.6 38.5 44 -7.4 18.6
20:25 1020 30.12 849 25.07 3.6 38.4 46 -7.1 19.2
20:30 1020 30.12 849 25.07 3.5 38.3 47 -6.8 19.7
20:35 1020 30.12 849 25.07 3.4 38.1 46 -7.1 19.3
20:40 1020 30.12 849 25.07 3.3 38 47 -6.9 19.6
20:45 1020 30.12 849 25.07 3.3 38 47 -6.8 19.7
20:50 1020 30.12 849 25.07 2.9 37.3 49 -6.6 20
20:55 1020 30.12 849 25.07 2.8 37.1 48 -7 19.4
21:00 1020 30.12 849 25.07 2.9 37.3 48 -7 19.3
21:05 1020 30.12 850 25.1 3.2 37.7 46 -7.3 18.9
21:10 1020 30.12 850 25.1 2.8 37.1 49 -6.9 19.6
21:15 1020 30.12 850 25.1 2.8 37 49 -6.9 19.6
21:20 1020 30.12 850 25.1 2.7 36.8 49 -7 19.3
21:25 1021 30.15 850 25.1 2.6 36.7 49 -7 19.4
21:30 1021 30.15 850 25.1 2.6 36.6 50 -6.8 19.7
21:35 1021 30.15 850 25.1 2.7 36.8 49 -7 19.4
21:40 1021 30.15 850 25.1 2.6 36.8 49 -7 19.4
21:45 1021 30.15 850 25.1 2.7 36.9 49 -7 19.4
21:50 1021 30.15 850 25.1 2.8 37 49 -6.9 19.5
21:55 1021 30.15 850 25.1 2.8 37 48 -7.1 19.2
22:00 1021 30.15 850 25.1 2.9 37.2 48 -7.1 19.2
22:05 1021 30.15 850 25.1 2.9 37.3 48 -7.1 19.2
22:10 1021 30.15 850 25.1 3 37.3 48 -7.1 19.2
22:15 1021 30.15 850 25.1 2.8 37 49 -7 19.4
22:20 1021 30.15 850 25.1 2.6 36.7 49 -7.1 19.3
22:25 1021 30.15 850 25.1 2.6 36.7 48 -7.3 18.8
22:30 1021 30.15 850 25.1 2.8 37.1 47 -7.3 18.9
22:35 1021 30.15 850 25.1 2.8 37.1 48 -7.1 19.2
22:40 1021 30.15 850 25.1 2.7 36.9 48 -7.1 19.2
22:45 1021 30.15 850 25.1 2.7 36.8 49 -7.1 19.2
22:50 1021 30.15 850 25.1 2.6 36.7 49 -7.1 19.2
22:55 1021 30.15 850 25.1 2.5 36.5 49 -7.1 19.1
23:00 1021 30.15 850 25.1 2.5 36.5 48 -7.3 18.8
23:05 1021 30.15 850 25.1 2.8 37 47 -7.3 18.8
23:10 1021 30.15 850 25.1 2.8 37 47 -7.3 18.8
23:15 1021 30.15 850 25.1 2.8 37.1 46 -7.7 18.1
23:20 1021 30.15 850 25.1 3.2 37.7 46 -7.4 18.7
23:25 1021 30.15 850 25.1 3.3 38 44 -7.8 18
23:30 1021 30.15 850 25.1 3.6 38.5 44 -7.6 18.3
23:35 1021 30.15 850 25.1 3.3 37.9 46 -7.3 18.8
23:40 1021 30.15 850 25.1 3.1 37.5 46 -7.4 18.7
23:45 1021 30.15 850 25.1 3.2 37.7 46 -7.5 18.6
23:50 1021 30.15 850 25.1 2.8 37 50 -6.8 19.8
23:55 1021 30.15 850 25.1 2.1 35.7 53 -6.7 20
24:00 1021 30.15 850 25.1 1.7 35.1 55 -6.4 20.4